createdAt,value
2019-02-22T00:01:31.128Z,94.21
2019-02-22T00:04:01.269Z,94.09
2019-02-22T00:06:30.329Z,93.53
2019-02-22T00:08:59.431Z,93.97
2019-02-22T00:11:28.623Z,93.45
2019-02-22T00:13:59.451Z,94.06
2019-02-22T00:16:28.630Z,94.29
2019-02-22T00:18:57.734Z,94.00
2019-02-22T00:21:26.841Z,93.27
2019-02-22T00:23:56.084Z,93.34
2019-02-22T00:26:25.173Z,93.67
2019-02-22T00:28:54.237Z,95.22
2019-02-22T00:31:23.339Z,94.35
2019-02-22T00:33:52.434Z,94.37
2019-02-22T00:36:21.627Z,93.98
2019-02-22T00:41:37.819Z,94.07
2019-02-22T00:44:09.029Z,95.40
2019-02-22T00:46:38.151Z,95.12
2019-02-22T00:49:07.324Z,94.70
2019-02-22T00:51:36.475Z,94.77
2019-02-22T00:54:05.542Z,94.49
2019-02-22T00:56:34.611Z,94.21
2019-02-22T00:59:03.759Z,94.32
2019-02-22T01:01:32.841Z,95.17
2019-02-22T01:04:01.900Z,95.06
2019-02-22T01:06:31.066Z,95.31
2019-02-22T01:09:00.187Z,94.79
2019-02-22T01:11:29.296Z,95.06
2019-02-22T01:13:58.437Z,94.36
2019-02-22T01:16:27.527Z,94.50
2019-02-22T01:18:56.710Z,94.53
2019-02-22T01:21:25.813Z,94.45
2019-02-22T01:23:54.994Z,94.99
2019-02-22T01:26:24.080Z,95.45
2019-02-22T01:28:53.194Z,94.89
2019-02-22T01:31:22.277Z,94.61
2019-02-22T01:33:54.208Z,94.03
2019-02-22T01:36:23.536Z,93.95
2019-02-22T01:38:52.856Z,94.39
2019-02-22T01:41:22.376Z,94.59
2019-02-22T01:43:51.570Z,95.63
2019-02-22T01:46:20.662Z,95.97
2019-02-22T01:48:49.789Z,96.26
2019-02-22T01:51:18.850Z,96.82
2019-02-22T01:53:48.012Z,95.71
2019-02-22T01:56:17.043Z,96.28
2019-02-22T01:58:49.020Z,96.23
2019-02-22T02:01:17.082Z,95.81
2019-02-22T02:03:46.190Z,96.00
2019-02-22T02:06:15.239Z,95.87
2019-02-22T02:08:44.308Z,95.41
2019-02-22T02:11:15.879Z,94.93
2019-02-22T02:13:44.987Z,95.21
2019-02-22T02:16:14.023Z,96.27
2019-02-22T02:18:43.124Z,96.34
2019-02-22T02:21:12.178Z,96.53
2019-02-22T02:23:41.303Z,96.87
2019-02-22T02:26:10.457Z,97.44
2019-02-22T02:28:40.659Z,97.14
2019-02-22T02:31:10.102Z,97.18
2019-02-22T02:33:39.686Z,97.62
2019-02-22T02:36:08.911Z,97.19
2019-02-22T02:38:40.710Z,97.23
2019-02-22T02:41:11.579Z,96.18
2019-02-22T02:43:41.050Z,96.45
2019-02-22T02:46:10.169Z,97.40
2019-02-22T02:48:40.843Z,97.19
2019-02-22T02:51:10.028Z,97.83
2019-02-22T02:53:39.077Z,98.10
2019-02-22T02:56:09.173Z,97.69
2019-02-22T02:58:40.357Z,98.22
2019-02-22T03:01:09.506Z,98.41
2019-02-22T03:03:38.562Z,98.29
2019-02-22T03:06:25.596Z,96.75
2019-02-22T03:08:54.677Z,97.67
2019-02-22T03:11:25.106Z,97.37
2019-02-22T03:13:54.195Z,96.54
2019-02-22T03:16:23.283Z,96.55
2019-02-22T03:18:52.355Z,95.21
2019-02-22T03:21:21.480Z,96.04
2019-02-22T03:23:50.580Z,95.65
2019-02-22T03:26:19.657Z,95.46
2019-02-22T03:28:48.727Z,95.92
2019-02-22T03:31:17.935Z,95.86
2019-02-22T03:33:52.123Z,95.51
2019-02-22T03:36:21.419Z,94.49
2019-02-22T03:38:50.519Z,95.03
2019-02-22T03:41:19.689Z,95.44
2019-02-22T03:43:48.797Z,95.26
2019-02-22T03:46:20.258Z,95.30
2019-02-22T03:48:49.297Z,95.71
2019-02-22T03:51:18.400Z,95.21
2019-02-22T03:53:57.331Z,94.81
2019-02-22T03:56:25.262Z,94.49
2019-02-22T03:58:54.305Z,95.33
2019-02-22T04:01:24.819Z,94.33
2019-02-22T04:03:56.367Z,95.35
2019-02-22T04:06:25.431Z,95.29
2019-02-22T04:08:54.467Z,94.84
2019-02-22T04:11:24.905Z,95.72
2019-02-22T04:13:54.026Z,95.68
2019-02-22T04:16:23.055Z,94.85
2019-02-22T04:18:52.184Z,95.65
2019-02-22T04:21:21.195Z,95.40
2019-02-22T04:23:50.340Z,95.43
2019-02-22T04:26:19.417Z,95.24
2019-02-22T04:28:48.540Z,95.22
2019-02-22T04:31:17.644Z,95.38
2019-02-22T04:33:48.987Z,94.68
2019-02-22T04:36:18.120Z,94.85
2019-02-22T04:38:47.280Z,94.44
2019-02-22T04:41:16.321Z,95.39
2019-02-22T04:43:45.435Z,96.22
2019-02-22T04:46:14.534Z,96.20
2019-02-22T04:48:43.717Z,96.33
2019-02-22T04:51:12.751Z,96.25
2019-02-22T04:53:44.255Z,96.43
2019-02-22T04:56:13.427Z,96.91
2019-02-22T04:58:43.520Z,96.66
2019-02-22T05:01:12.700Z,96.64
2019-02-22T05:03:41.775Z,96.38
2019-02-22T05:06:10.882Z,96.23
2019-02-22T05:08:39.980Z,95.86
2019-02-22T05:11:09.063Z,95.17
2019-02-22T05:13:38.144Z,95.18
2019-02-22T05:16:07.215Z,94.57
2019-02-22T05:18:36.399Z,95.16
2019-02-22T05:21:07.560Z,94.97
2019-02-22T05:23:36.584Z,94.86
2019-02-22T05:26:05.632Z,95.27
2019-02-22T05:28:35.191Z,95.17
2019-02-22T05:31:04.247Z,94.97
2019-02-22T05:33:33.329Z,95.17
2019-02-22T05:36:02.385Z,95.70
2019-02-22T05:38:31.519Z,95.70
2019-02-22T05:41:02.132Z,95.85
2019-02-22T05:43:31.251Z,95.75
2019-02-22T05:46:02.731Z,95.74
2019-02-22T05:48:33.020Z,95.32
2019-02-22T05:51:02.082Z,95.51
2019-02-22T05:53:33.438Z,95.62
2019-02-22T05:56:02.496Z,95.56
2019-02-22T05:58:31.933Z,95.19
2019-02-22T06:01:01.090Z,95.12
2019-02-22T06:03:30.268Z,95.10
2019-02-22T06:05:59.445Z,94.80
2019-02-22T06:08:32.650Z,95.63
2019-02-22T06:11:02.852Z,94.96
2019-02-22T06:13:32.049Z,95.85
2019-02-22T06:16:01.142Z,95.26
2019-02-22T06:18:30.300Z,95.82
2019-02-22T06:20:59.320Z,95.40
2019-02-22T06:23:30.703Z,95.43
2019-02-22T06:25:59.792Z,95.21
2019-02-22T06:28:28.872Z,94.97
2019-02-22T06:30:57.946Z,95.23
2019-02-22T06:33:27.018Z,95.16
2019-02-22T06:35:56.155Z,95.58
2019-02-22T06:38:25.313Z,95.36
2019-02-22T06:40:54.794Z,94.57
2019-02-22T06:43:23.931Z,94.71
2019-02-22T06:45:53.033Z,95.03
2019-02-22T06:48:22.157Z,95.21
2019-02-22T06:50:51.254Z,94.78
2019-02-22T06:53:20.319Z,94.14
2019-02-22T06:55:49.408Z,94.14
2019-02-22T06:58:18.469Z,95.29
2019-02-22T07:00:47.589Z,94.53
2019-02-22T07:03:16.710Z,95.51
2019-02-22T07:05:45.811Z,95.02
2019-02-22T07:08:14.885Z,94.56
2019-02-22T07:11:15.048Z,94.32
2019-02-22T07:13:46.130Z,93.96
2019-02-22T07:16:15.376Z,93.51
2019-02-22T07:18:44.499Z,93.67
2019-02-22T07:21:13.616Z,92.81
2019-02-22T07:23:42.662Z,93.83
2019-02-22T07:26:11.809Z,93.24
2019-02-22T07:28:41.346Z,92.81
2019-02-22T07:31:10.450Z,93.05
2019-02-22T07:33:40.835Z,92.66
2019-02-22T07:36:09.978Z,92.71
2019-02-22T07:38:40.204Z,92.45
2019-02-22T07:41:09.290Z,92.58
2019-02-22T07:43:45.782Z,91.92
2019-02-22T07:46:18.917Z,93.56
2019-02-22T07:48:48.084Z,93.32
2019-02-22T07:51:20.477Z,93.14
2019-02-22T07:53:49.561Z,92.50
2019-02-22T07:56:19.267Z,92.20
2019-02-22T07:58:48.423Z,93.37
2019-02-22T08:01:17.552Z,92.50
2019-02-22T08:03:46.576Z,92.38
2019-02-22T08:06:17.682Z,95.21
2019-02-22T08:08:48.454Z,91.82
2019-02-22T08:11:22.059Z,91.21
2019-02-22T08:13:51.149Z,91.46
2019-02-22T08:16:21.485Z,92.22
2019-02-22T08:19:01.202Z,93.00
2019-02-22T08:21:21.476Z,92.01
2019-02-22T08:23:50.623Z,91.73
2019-02-22T08:26:19.813Z,92.85
2019-02-22T08:28:50.112Z,92.33
2019-02-22T08:31:19.282Z,92.42
2019-02-22T08:33:48.452Z,91.98
2019-02-22T08:36:17.624Z,94.04
2019-02-22T08:38:46.746Z,94.28
2019-02-22T08:41:17.057Z,94.78
2019-02-22T08:43:46.135Z,94.86
2019-02-22T08:46:17.278Z,94.06
2019-02-22T08:48:46.358Z,94.85
2019-02-22T08:51:15.541Z,94.24
2019-02-22T08:53:44.600Z,93.80
2019-02-22T08:56:13.850Z,94.81
2019-02-22T08:58:42.942Z,94.27
2019-02-22T09:01:13.202Z,94.88
2019-02-22T09:03:50.724Z,94.36
2019-02-22T09:06:15.534Z,94.30
2019-02-22T09:08:44.691Z,93.94
2019-02-22T09:11:15.004Z,93.60
2019-02-22T09:13:44.097Z,94.17
2019-02-22T09:16:13.161Z,95.35
2019-02-22T09:18:42.292Z,95.01
2019-02-22T09:21:11.378Z,93.10
2019-02-22T09:23:40.515Z,95.05
2019-02-22T09:26:09.577Z,94.70
2019-02-22T09:28:38.642Z,96.12
2019-02-22T09:31:07.742Z,96.55
2019-02-22T09:33:38.272Z,96.35
2019-02-22T09:36:07.389Z,96.68
2019-02-22T09:38:38.834Z,96.02
2019-02-22T09:41:08.125Z,95.56
2019-02-22T09:43:40.538Z,94.80
2019-02-22T09:46:09.694Z,94.98
2019-02-22T09:48:38.946Z,94.72
2019-02-22T09:51:08.047Z,93.87
2019-02-22T09:53:37.166Z,94.03
2019-02-22T09:56:06.259Z,93.20
2019-02-22T09:58:36.486Z,92.66
2019-02-22T10:01:05.525Z,94.28
2019-02-22T10:03:34.649Z,93.41
2019-02-22T10:06:03.807Z,92.49
2019-02-22T10:08:35.143Z,91.25
2019-02-22T10:11:04.530Z,89.78
2019-02-22T10:13:33.681Z,90.11
2019-02-22T10:16:02.847Z,90.62
2019-02-22T10:18:31.956Z,90.56
2019-02-22T10:21:04.187Z,90.16
2019-02-22T10:23:33.343Z,90.92
2019-02-22T10:26:04.472Z,89.75
2019-02-22T10:28:33.626Z,89.92
2019-02-22T10:31:02.715Z,90.19
2019-02-22T10:33:36.728Z,90.50
2019-02-22T10:36:02.857Z,88.08
2019-02-22T10:38:33.866Z,87.88
2019-02-22T10:41:02.852Z,86.53
2019-02-22T10:43:31.981Z,85.59
2019-02-22T10:46:02.134Z,84.49
2019-02-22T10:48:31.266Z,85.18
2019-02-22T10:51:00.419Z,83.05
2019-02-22T10:53:29.589Z,83.93
2019-02-22T10:55:58.689Z,81.88
2019-02-22T10:58:27.812Z,81.32
2019-02-22T11:00:59.324Z,80.40
2019-02-22T11:03:28.390Z,80.46
2019-02-22T11:05:57.495Z,78.02
2019-02-22T11:08:26.579Z,77.90
2019-02-22T11:10:55.747Z,78.84
2019-02-22T11:13:24.858Z,77.55
2019-02-22T11:15:55.791Z,77.00
2019-02-22T11:18:24.974Z,75.07
2019-02-22T11:20:54.092Z,73.46
2019-02-22T11:23:23.155Z,72.75
2019-02-22T11:25:53.886Z,73.12
2019-02-22T11:28:25.300Z,71.65
2019-02-22T11:30:54.589Z,71.11
2019-02-22T11:33:25.238Z,71.53
2019-02-22T11:35:54.388Z,73.19
2019-02-22T11:38:23.597Z,73.21
2019-02-22T11:40:52.704Z,73.55
2019-02-22T11:43:21.825Z,73.97
2019-02-22T11:45:50.923Z,71.98
2019-02-22T11:48:21.139Z,70.50
2019-02-22T11:50:50.391Z,65.44
2019-02-22T11:53:21.456Z,64.40
2019-02-22T11:55:50.627Z,64.21
2019-02-22T11:58:19.690Z,68.95
2019-02-22T12:00:48.796Z,69.37
2019-02-22T12:03:24.755Z,68.82
2019-02-22T12:05:51.473Z,68.46
2019-02-22T12:08:20.622Z,69.42
2019-02-22T12:10:49.879Z,71.82
2019-02-22T12:13:19.040Z,71.00
2019-02-22T12:15:48.634Z,69.34
2019-02-22T12:18:19.750Z,70.95
2019-02-22T12:20:48.830Z,70.82
2019-02-22T12:23:18.105Z,70.70
2019-02-22T12:25:47.214Z,70.82
2019-02-22T12:28:17.442Z,70.99
2019-02-22T12:30:48.852Z,70.95
2019-02-22T12:33:17.993Z,71.10
2019-02-22T12:35:47.196Z,71.64
2019-02-22T12:38:16.337Z,70.78
2019-02-22T12:40:45.529Z,70.86
2019-02-22T12:43:16.453Z,70.08
2019-02-22T12:45:47.142Z,67.70
2019-02-22T12:48:16.306Z,66.31
2019-02-22T12:50:47.555Z,64.00
2019-02-22T12:53:16.717Z,66.83
2019-02-22T12:55:45.802Z,68.18
2019-02-22T12:58:15.570Z,66.52
2019-02-22T13:00:46.184Z,66.58
2019-02-22T13:03:15.411Z,67.05
2019-02-22T13:05:46.276Z,66.48
2019-02-22T13:08:15.940Z,66.30
2019-02-22T13:10:47.384Z,65.64
2019-02-22T13:13:17.863Z,64.94
2019-02-22T13:15:47.194Z,64.41
2019-02-22T13:18:16.354Z,64.42
2019-02-22T13:20:45.793Z,63.60
2019-02-22T13:23:15.094Z,62.16
2019-02-22T13:25:44.710Z,62.13
2019-02-22T13:28:14.095Z,63.66
2019-02-22T13:30:43.547Z,62.76
2019-02-22T13:33:12.644Z,62.87
2019-02-22T13:35:41.943Z,66.10
2019-02-22T13:38:11.154Z,66.32
2019-02-22T13:40:43.486Z,67.31
2019-02-22T13:43:12.937Z,66.48
2019-02-22T13:45:42.783Z,66.53
2019-02-22T13:48:12.316Z,67.46
2019-02-22T13:50:42.025Z,67.03
2019-02-22T13:53:11.546Z,65.67
2019-02-22T13:55:40.757Z,66.25
2019-02-22T13:58:10.019Z,65.89
2019-02-22T14:00:39.471Z,64.68
2019-02-22T14:03:10.116Z,64.67
2019-02-22T14:05:46.744Z,64.02
2019-02-22T14:08:16.059Z,64.96
2019-02-22T14:10:46.572Z,64.10
2019-02-22T14:13:15.655Z,64.48
2019-02-22T14:15:47.496Z,64.78
2019-02-22T14:18:17.970Z,63.63
2019-02-22T14:20:48.687Z,63.85
2019-02-22T14:23:19.241Z,63.97
2019-02-22T14:25:48.842Z,64.99
2019-02-22T14:28:18.312Z,64.02
2019-02-22T14:30:52.146Z,64.79
2019-02-22T14:33:21.538Z,63.76
2019-02-22T14:35:50.667Z,64.64
2019-02-22T14:38:20.264Z,63.34
2019-02-22T14:40:52.740Z,63.97
2019-02-22T14:44:02.603Z,64.28
2019-02-22T14:46:40.980Z,62.39
2019-02-22T14:49:10.265Z,62.28
2019-02-22T14:51:39.414Z,61.72
2019-02-22T14:54:08.746Z,60.14
2019-02-22T14:56:38.302Z,58.60
2019-02-22T14:59:07.929Z,59.60
2019-02-22T15:01:37.404Z,61.22
2019-02-22T15:04:06.654Z,60.94
2019-02-22T15:06:36.183Z,60.21
2019-02-22T15:09:06.104Z,60.43
2019-02-22T15:11:35.277Z,61.00
2019-02-22T15:14:04.418Z,61.13
2019-02-22T15:16:51.064Z,60.60
2019-02-22T15:19:22.548Z,60.26
2019-02-22T15:21:53.702Z,58.10
2019-02-22T15:24:22.986Z,57.52
2019-02-22T15:26:53.915Z,56.67
2019-02-22T15:29:22.957Z,56.88
2019-02-22T15:31:52.179Z,56.33
2019-02-22T15:34:21.462Z,57.04
2019-02-22T15:36:50.671Z,56.35
2019-02-22T15:39:19.879Z,57.16
2019-02-22T15:41:49.044Z,56.06
2019-02-22T15:44:18.161Z,57.91
2019-02-22T15:46:47.585Z,58.29
2019-02-22T15:49:18.190Z,57.85
2019-02-22T15:51:49.781Z,57.94
2019-02-22T15:54:18.966Z,58.63
2019-02-22T15:56:48.190Z,58.28
2019-02-22T15:59:21.066Z,59.46
2019-02-22T16:01:56.137Z,60.10
2019-02-22T16:04:47.549Z,59.84
2019-02-22T16:07:18.653Z,59.43
2019-02-22T16:09:48.105Z,60.52
2019-02-22T16:12:17.344Z,59.74
2019-02-22T16:14:48.013Z,59.79
2019-02-22T16:17:19.506Z,59.82
2019-02-22T16:19:51.405Z,60.09
2019-02-22T16:22:20.952Z,60.87
2019-02-22T16:24:52.114Z,60.29
2019-02-22T16:27:21.639Z,61.04
2019-02-22T16:29:51.859Z,61.84
2019-02-22T16:32:23.816Z,62.04
2019-02-22T16:34:53.019Z,62.40
2019-02-22T16:37:22.236Z,61.54
2019-02-22T16:39:53.162Z,61.94
2019-02-22T16:42:22.480Z,62.41
2019-02-22T16:44:52.913Z,61.98
2019-02-22T16:47:23.042Z,62.86
2019-02-22T16:49:52.292Z,62.60
2019-02-22T16:52:27.241Z,63.67
2019-02-22T16:54:56.407Z,63.74
2019-02-22T16:57:25.551Z,62.90
2019-02-22T16:59:56.117Z,64.40
2019-02-22T17:02:25.519Z,64.07
2019-02-22T17:04:54.570Z,64.25
2019-02-22T17:07:23.690Z,64.88
2019-02-22T17:09:52.780Z,65.81
2019-02-22T17:12:21.957Z,65.86
2019-02-22T17:14:51.987Z,65.85
2019-02-22T17:17:21.249Z,65.97
2019-02-22T17:19:50.295Z,66.10
2019-02-22T17:22:21.653Z,66.51
2019-02-22T17:24:50.778Z,66.86
2019-02-22T17:27:21.901Z,66.96
2019-02-22T17:29:52.272Z,66.58
2019-02-22T17:32:34.938Z,67.01
2019-02-22T17:35:04.145Z,67.34
2019-02-22T17:37:33.766Z,67.46
2019-02-22T17:40:03.588Z,67.20
2019-02-22T17:42:32.657Z,67.61
2019-02-22T17:45:01.745Z,68.43
2019-02-22T17:47:30.881Z,68.67
2019-02-22T17:50:01.082Z,68.46
2019-02-22T17:52:41.104Z,68.58
2019-02-22T17:55:40.128Z,69.59
2019-02-22T17:58:09.318Z,70.24
2019-02-22T18:00:39.517Z,69.17
2019-02-22T18:03:08.665Z,69.57
2019-02-22T18:05:37.891Z,69.81
2019-02-22T18:08:07.224Z,70.69
2019-02-22T18:10:38.938Z,69.94
2019-02-22T18:13:12.763Z,70.17
2019-02-22T18:15:43.342Z,70.81
2019-02-22T18:18:16.034Z,71.06
2019-02-22T18:20:45.136Z,71.89
2019-02-22T18:23:14.353Z,72.05
2019-02-22T18:25:50.410Z,72.41
2019-02-22T18:28:20.053Z,73.48
2019-02-22T18:30:49.478Z,73.81
2019-02-22T18:33:21.140Z,73.79
2019-02-22T18:35:52.429Z,74.49
2019-02-22T18:38:21.653Z,74.02
2019-02-22T18:40:51.557Z,75.21
2019-02-22T18:43:25.412Z,75.40
2019-02-22T18:45:56.114Z,76.43
2019-02-22T18:48:27.475Z,77.06
2019-02-22T18:50:58.706Z,77.15
2019-02-22T18:53:43.159Z,77.74
2019-02-22T18:56:12.288Z,79.17
2019-02-22T18:58:44.221Z,79.24
2019-02-22T19:01:13.385Z,79.73
2019-02-22T19:03:42.580Z,79.89
2019-02-22T19:06:11.769Z,79.49
2019-02-22T19:08:41.096Z,80.00
2019-02-22T19:11:12.330Z,80.52
2019-02-22T19:13:42.017Z,80.86
2019-02-22T19:16:11.236Z,80.61
2019-02-22T19:18:42.593Z,80.80
2019-02-22T19:21:11.957Z,81.57
2019-02-22T19:23:41.101Z,82.39
2019-02-22T19:26:10.197Z,82.14
2019-02-22T19:28:39.559Z,83.09
2019-02-22T19:31:09.737Z,82.45
2019-02-22T19:33:39.170Z,82.52
2019-02-22T19:36:08.679Z,82.78
2019-02-22T19:38:38.024Z,82.83
2019-02-22T19:41:07.143Z,83.83
2019-02-22T19:43:36.247Z,84.48
2019-02-22T19:46:06.762Z,85.02
2019-02-22T19:48:35.938Z,84.97
2019-02-22T19:51:05.410Z,85.76
2019-02-22T19:53:34.618Z,85.67
2019-02-22T19:56:03.852Z,86.57
2019-02-22T19:58:33.259Z,86.20
2019-02-22T20:01:02.769Z,84.38
2019-02-22T20:03:32.865Z,84.64
2019-02-22T20:06:04.718Z,84.74
2019-02-22T20:08:33.967Z,85.18
2019-02-22T20:11:03.224Z,85.76
2019-02-22T20:13:33.825Z,85.70
2019-02-22T20:16:03.058Z,85.16
2019-02-22T20:18:32.256Z,87.08
2019-02-22T20:21:01.593Z,87.47
2019-02-22T20:23:30.907Z,87.29
2019-02-22T20:26:00.238Z,86.84
2019-02-22T20:28:31.264Z,87.29
2019-02-22T20:31:02.996Z,87.43
2019-02-22T20:33:33.328Z,87.81
2019-02-22T20:36:02.537Z,89.05
2019-02-22T20:38:31.988Z,88.92
2019-02-22T20:41:01.074Z,89.30
2019-02-22T20:43:30.907Z,88.61
2019-02-22T20:46:00.027Z,88.83
2019-02-22T20:48:29.055Z,88.36
2019-02-22T20:50:59.348Z,88.40
2019-02-22T20:53:28.577Z,88.40
2019-02-22T20:55:57.717Z,88.98
2019-02-22T20:58:27.011Z,89.25
2019-02-22T21:00:56.153Z,89.43
2019-02-22T21:03:26.693Z,89.11
2019-02-22T21:05:57.325Z,88.38
2019-02-22T21:08:29.098Z,89.52
2019-02-22T21:10:58.311Z,89.40
2019-02-22T21:13:28.434Z,89.53
2019-02-22T21:15:58.760Z,89.67
2019-02-22T21:18:27.976Z,89.60
2019-02-22T21:20:57.263Z,88.68
2019-02-22T21:23:26.458Z,88.41
2019-02-22T21:25:56.050Z,88.49
2019-02-22T21:28:25.245Z,89.16
2019-02-22T21:30:54.389Z,89.96
2019-02-22T21:33:23.607Z,89.19
2019-02-22T21:35:52.759Z,88.22
2019-02-22T21:38:22.118Z,88.03
2019-02-22T21:40:51.235Z,88.44
2019-02-22T21:43:20.461Z,87.95
2019-02-22T21:45:49.605Z,88.00
2019-02-22T21:48:27.250Z,88.06
2019-02-22T21:50:49.606Z,87.62
2019-02-22T21:53:18.657Z,88.09
2019-02-22T21:55:47.820Z,88.75
2019-02-22T21:58:16.987Z,88.13
2019-02-22T22:00:46.089Z,88.90
2019-02-22T22:03:15.210Z,88.83
2019-02-22T22:05:44.380Z,89.02
2019-02-22T22:08:13.490Z,89.29
2019-02-22T22:10:42.585Z,88.87
2019-02-22T22:13:11.658Z,88.91
2019-02-22T22:15:40.760Z,88.38
2019-02-22T22:18:09.990Z,88.63
2019-02-22T22:20:39.411Z,89.26
2019-02-22T22:23:12.087Z,89.25
2019-02-22T22:25:41.246Z,89.37
2019-02-22T22:28:10.430Z,89.56
2019-02-22T22:30:39.652Z,90.35
2019-02-22T22:33:10.317Z,90.15
2019-02-22T22:35:58.490Z,89.35
2019-02-22T22:38:27.624Z,88.75
2019-02-22T22:41:00.670Z,88.29
2019-02-22T22:43:31.693Z,88.14
2019-02-22T22:46:01.837Z,88.23
2019-02-22T22:48:31.498Z,88.27
2019-02-22T22:51:00.915Z,87.75
2019-02-22T22:53:33.501Z,89.14
2019-02-22T22:56:03.808Z,88.98
2019-02-22T22:58:33.185Z,88.74
2019-02-22T23:01:17.392Z,87.86
2019-02-22T23:03:48.720Z,89.26
2019-02-22T23:06:18.625Z,89.33
2019-02-22T23:08:48.721Z,88.63
2019-02-22T23:11:18.394Z,87.76
2019-02-22T23:13:48.693Z,88.84
2019-02-22T23:16:19.548Z,88.26
2019-02-22T23:18:48.741Z,88.94
2019-02-22T23:21:17.930Z,89.37
2019-02-22T23:23:47.042Z,89.84
2019-02-22T23:26:16.208Z,90.39
2019-02-22T23:28:46.577Z,89.77
2019-02-22T23:31:15.789Z,88.71
2019-02-22T23:33:47.296Z,87.70
2019-02-22T23:36:16.533Z,87.00
2019-02-22T23:38:45.954Z,88.04
2019-02-22T23:41:16.117Z,90.24
2019-02-22T23:43:47.759Z,89.97
2019-02-22T23:46:16.861Z,88.97
2019-02-22T23:48:45.949Z,88.92
2019-02-22T23:51:15.101Z,88.92
2019-02-22T23:53:44.228Z,88.25
2019-02-22T23:56:13.378Z,89.86
2019-02-22T23:58:42.507Z,89.02
